Time;durP1;ratioP1;P1;durP2;ratioP2;P2;SDS_P1;SDS_P2;PMS_P1;PMS_P2;Temp;Humidity;BMP_temperature;BMP_pressure;BME280_temperature;BME280_humidity;BME280_pressure;Samples;Min_cycle;Max_cycle;Signal;HPM_P1;HPM_P2
2023/07/07 00:01:50;;;;;;;0.20;0.10;;;;;;;;;;5040520;28;20037;-80
2023/07/07 00:04:17;;;;;;;0.20;0.10;;;;;;;;;;5038637;28;20060;-80
2023/07/07 00:06:43;;;;;;;0.20;0.10;;;;;;;;;;5026368;28;20529;-80
2023/07/07 00:09:09;;;;;;;0.20;0.10;;;;;;;;;;5029046;28;20208;-80
2023/07/07 00:11:35;;;;;;;0.20;0.00;;;;;;;;;;5026092;28;20080;-80
2023/07/07 00:14:02;;;;;;;0.20;0.10;;;;;;;;;;5024855;28;20087;-80
2023/07/07 00:16:28;;;;;;;0.20;0.03;;;;;;;;;;5025723;28;20431;-80
2023/07/07 00:18:54;;;;;;;0.20;0.10;;;;;;;;;;5023397;28;20232;-80
2023/07/07 00:21:24;;;;;;;0.20;0.10;;;;;;;;;;5020302;28;20033;-80
2023/07/07 00:23:55;;;;;;;0.20;0.10;;;;;;;;;;5016983;28;20422;-80
2023/07/07 00:26:21;;;;;;;0.20;0.05;;;;;;;;;;5026621;28;20033;-80
2023/07/07 00:28:48;;;;;;;0.20;0.10;;;;;;;;;;5041981;28;20087;-80
2023/07/07 00:31:14;;;;;;;0.20;0.10;;;;;;;;;;5017732;28;20052;-80
2023/07/07 00:33:40;;;;;;;0.20;0.10;;;;;;;;;;5021302;28;20376;-80
2023/07/07 00:36:06;;;;;;;0.20;0.13;;;;;;;;;;5041624;28;20315;-80
2023/07/07 00:38:32;;;;;;;0.20;0.10;;;;;;;;;;5060271;28;20042;-80
2023/07/07 00:41:02;;;;;;;0.20;0.10;;;;;;;;;;5028206;28;20037;-80
2023/07/07 00:43:28;;;;;;;0.20;0.10;;;;;;;;;;5041460;28;20044;-80
2023/07/07 00:45:54;;;;;;;0.20;0.10;;;;;;;;;;5044262;28;20317;-80
2023/07/07 00:48:21;;;;;;;0.20;0.10;;;;;;;;;;5041131;28;20041;-80
2023/07/07 00:51:00;;;;;;;0.20;0.00;;;;;;;;;;5036155;28;20044;-80
2023/07/07 00:53:27;;;;;;;0.20;0.10;;;;;;;;;;5028750;28;20091;-80
2023/07/07 00:56:02;;;;;;;0.20;0.08;;;;;;;;;;5023987;28;20501;-80
2023/07/07 00:58:29;;;;;;;0.20;0.10;;;;;;;;;;5055731;28;20567;-80
2023/07/07 01:00:59;;;;;;;0.20;0.10;;;;;;;;;;5028376;28;20277;-80
2023/07/07 01:03:27;;;;;;;0.20;0.15;;;;;;;;;;5033145;28;20068;-80
2023/07/07 01:05:55;;;;;;;0.20;0.10;;;;;;;;;;5039818;28;20509;-80
2023/07/07 01:08:21;;;;;;;0.20;0.10;;;;;;;;;;5039855;28;20128;-80
2023/07/07 01:10:47;;;;;;;0.32;0.20;;;;;;;;;;5036411;28;20584;-80
2023/07/07 01:13:13;;;;;;;0.20;0.10;;;;;;;;;;5030777;28;20132;-80
2023/07/07 01:15:47;;;;;;;0.28;0.22;;;;;;;;;;5029354;28;20061;-80
2023/07/07 01:18:36;;;;;;;0.20;0.10;;;;;;;;;;5038817;28;20072;-81
2023/07/07 01:21:09;;;;;;;0.20;0.10;;;;;;;;;;5047867;28;20107;-80
2023/07/07 01:23:50;;;;;;;0.20;0.10;;;;;;;;;;5061150;28;20032;-81
2023/07/07 01:26:22;;;;;;;0.20;0.10;;;;;;;;;;5059731;28;20036;-80
2023/07/07 01:29:03;;;;;;;0.20;0.10;;;;;;;;;;5064206;28;20101;-80
2023/07/07 01:31:48;;;;;;;0.30;0.30;;;;;;;;;;5055430;28;20037;-80
2023/07/07 01:34:15;;;;;;;0.40;0.28;;;;;;;;;;5052972;28;20044;-79
2023/07/07 01:36:45;;;;;;;0.20;0.00;;;;;;;;;;5017152;23;20042;-86
2023/07/07 01:39:22;;;;;;;0.20;0.10;;;;;;;;;;4978574;28;20053;-87
2023/07/07 01:42:34;;;;;;;;;;;;;;;;;;;;;
2023/07/07 01:48:39;;;;;;;0.20;0.10;;;;;;;;;;4966646;28;20446;-86
2023/07/07 01:51:12;;;;;;;0.30;0.30;;;;;;;;;;4977343;28;20053;-85
2023/07/07 01:54:09;;;;;;;0.20;0.00;;;;;;;;;;4975967;28;20052;-86
2023/07/07 01:56:57;;;;;;;;;;;;;;;;;;;;;
2023/07/07 01:59:30;;;;;;;0.20;0.10;;;;;;;;;;4995996;28;20124;-85
2023/07/07 02:02:17;;;;;;;0.32;0.30;;;;;;;;;;4995080;28;20175;-85
2023/07/07 02:04:59;;;;;;;0.20;0.08;;;;;;;;;;4978468;28;20521;-85
2023/07/07 02:07:39;;;;;;;0.20;0.10;;;;;;;;;;4979431;28;20050;-85
2023/07/07 02:10:08;;;;;;;0.20;0.10;;;;;;;;;;4993400;28;20421;-85
2023/07/07 02:12:40;;;;;;;0.20;0.10;;;;;;;;;;4971906;28;20045;-85
2023/07/07 02:15:29;;;;;;;0.20;0.10;;;;;;;;;;4979852;28;20079;-85
2023/07/07 02:18:09;;;;;;;0.20;0.00;;;;;;;;;;4989177;28;20050;-86
2023/07/07 02:27:52;;;;;;;0.75;0.20;;;;;;;;;;4995087;28;20038;-85
2023/07/07 02:34:03;;;;;;;0.73;0.45;;;;;;;;;;4997595;28;20034;-85
2023/07/07 02:37:26;;;;;;;0.28;0.25;;;;;;;;;;4987416;28;20071;-85
2023/07/07 02:40:30;;;;;;;0.20;0.17;;;;;;;;;;4977283;28;20506;-85
2023/07/07 02:43:40;;;;;;;0.80;0.52;;;;;;;;;;5001011;28;20042;-84
2023/07/07 02:45:56;;;;;;;0.30;0.20;;;;;;;;;;4991361;28;20516;-84
2023/07/07 02:49:19;;;;;;;0.38;0.20;;;;;;;;;;4990115;28;20508;-85
2023/07/07 02:55:36;;;;;;;0.43;0.43;;;;;;;;;;4915727;28;20417;-85
2023/07/07 02:58:17;;;;;;;;;;;;;;;;;;;;;
2023/07/07 03:01:38;;;;;;;;;;;;;;;;;;;;;
2023/07/07 03:04:16;;;;;;;0.20;0.13;;;;;;;;;;4930005;28;20270;-84
2023/07/07 03:07:26;;;;;;;;;;;;;;;;;;;;;
2023/07/07 03:13:27;;;;;;;0.20;0.10;;;;;;;;;;4955264;28;20145;-85
2023/07/07 03:16:01;;;;;;;0.28;0.28;;;;;;;;;;4934465;28;20144;-85
2023/07/07 03:18:30;;;;;;;0.90;0.52;;;;;;;;;;4952800;28;20046;-84
2023/07/07 03:21:32;;;;;;;0.20;0.10;;;;;;;;;;4952362;28;20092;-85
2023/07/07 03:24:14;;;;;;;0.20;0.10;;;;;;;;;;4987788;28;20050;-85
2023/07/07 03:27:20;;;;;;;0.30;0.30;;;;;;;;;;5006906;28;20076;-85
2023/07/07 03:30:06;;;;;;;0.20;0.17;;;;;;;;;;4988231;28;20590;-85
2023/07/07 03:33:32;;;;;;;;;;;;;;;;;;;;;
2023/07/07 03:40:26;;;;;;;0.43;0.43;;;;;;;;;;4772582;29;20095;-86
2023/07/07 03:43:24;;;;;;;0.20;0.10;;;;;;;;;;4809686;29;20566;-86
2023/07/07 03:46:01;;;;;;;0.20;0.00;;;;;;;;;;4893755;28;20495;-87
2023/07/07 03:48:59;;;;;;;0.32;0.17;;;;;;;;;;4984132;28;20308;-85
2023/07/07 03:51:36;;;;;;;0.30;0.20;;;;;;;;;;4979802;28;20129;-84
2023/07/07 03:57:12;;;;;;;0.52;0.52;;;;;;;;;;4964551;28;20081;-84
2023/07/07 03:59:49;;;;;;;0.30;0.28;;;;;;;;;;4991124;28;20070;-84
2023/07/07 04:02:28;;;;;;;0.40;0.30;;;;;;;;;;4992163;28;20030;-84
2023/07/07 04:11:26;;;;;;;0.20;0.10;;;;;;;;;;4996505;28;20042;-85
2023/07/07 04:14:05;;;;;;;;;;;;;;;;;;;;;
2023/07/07 04:16:43;;;;;;;0.57;0.47;;;;;;;;;;4987227;28;20671;-85
2023/07/07 04:22:23;;;;;;;0.57;0.30;;;;;;;;;;4995881;28;20541;-83
2023/07/07 04:25:12;;;;;;;0.20;0.20;;;;;;;;;;4982955;28;20046;-84
2023/07/07 04:28:03;;;;;;;0.20;0.10;;;;;;;;;;5003398;28;20163;-85
2023/07/07 04:34:00;;;;;;;0.20;0.20;;;;;;;;;;4988424;28;20042;-84
2023/07/07 04:43:06;;;;;;;0.20;0.10;;;;;;;;;;4978359;28;20282;-85
2023/07/07 04:52:22;;;;;;;0.43;0.43;;;;;;;;;;4982831;28;20050;-84
2023/07/07 04:55:17;;;;;;;0.20;0.15;;;;;;;;;;4995828;28;20042;-85
2023/07/07 04:57:58;;;;;;;0.20;0.10;;;;;;;;;;4990321;28;20409;-85
2023/07/07 05:00:38;;;;;;;0.20;0.20;;;;;;;;;;4992136;28;20316;-85
2023/07/07 05:03:12;;;;;;;0.30;0.20;;;;;;;;;;4977530;28;20096;-84
2023/07/07 05:06:19;;;;;;;0.20;0.10;;;;;;;;;;4984585;28;20502;-85
2023/07/07 05:10:05;;;;;;;0.20;0.10;;;;;;;;;;4931522;28;20058;-84
2023/07/07 05:15:30;;;;;;;0.52;0.17;;;;;;;;;;4995332;28;20155;-85
2023/07/07 05:21:44;;;;;;;0.52;0.20;;;;;;;;;;4951428;28;20081;-84
2023/07/07 05:24:53;;;;;;;0.20;0.20;;;;;;;;;;4955819;28;20783;-84
2023/07/07 05:27:31;;;;;;;0.20;0.10;;;;;;;;;;4963745;28;20418;-84
2023/07/07 05:30:17;;;;;;;0.30;0.28;;;;;;;;;;4998952;28;20034;-84
2023/07/07 05:33:27;;;;;;;0.20;0.10;;;;;;;;;;4997274;28;20490;-86
2023/07/07 05:35:58;;;;;;;0.52;0.52;;;;;;;;;;4981003;28;20058;-83
2023/07/07 05:38:35;;;;;;;0.40;0.20;;;;;;;;;;5001522;28;20044;-84
2023/07/07 05:41:24;;;;;;;0.40;0.30;;;;;;;;;;4982774;28;20083;-85
2023/07/07 05:44:16;;;;;;;;;;;;;;;;;;;;;
2023/07/07 05:50:13;;;;;;;0.20;0.10;;;;;;;;;;4996038;28;20080;-85
2023/07/07 05:52:42;;;;;;;0.98;0.30;;;;;;;;;;5002177;28;20407;-84
2023/07/07 05:58:42;;;;;;;0.30;0.20;;;;;;;;;;4939618;28;20133;-83
2023/07/07 06:04:54;;;;;;;0.20;0.10;;;;;;;;;;4992403;28;20103;-85
2023/07/07 06:07:32;;;;;;;0.47;0.20;;;;;;;;;;4985008;28;20041;-84
2023/07/07 06:13:00;;;;;;;0.40;0.30;;;;;;;;;;4986660;28;20107;-84
2023/07/07 06:15:33;;;;;;;0.20;0.10;;;;;;;;;;4991524;28;20053;-85
2023/07/07 06:18:02;;;;;;;0.20;0.10;;;;;;;;;;4991758;28;20076;-84
2023/07/07 06:20:31;;;;;;;0.28;0.25;;;;;;;;;;4980802;28;20073;-84
2023/07/07 06:25:53;;;;;;;0.20;0.10;;;;;;;;;;5003388;28;20038;-86
2023/07/07 06:28:28;;;;;;;0.20;0.20;;;;;;;;;;4989369;28;20037;-88
2023/07/07 06:30:54;;;;;;;0.32;0.22;;;;;;;;;;5000208;28;20033;-83
2023/07/07 06:33:23;;;;;;;0.20;0.10;;;;;;;;;;5012601;28;20069;-84
2023/07/07 06:35:49;;;;;;;0.20;0.00;;;;;;;;;;4982715;28;20076;-86
2023/07/07 06:38:18;;;;;;;0.20;0.20;;;;;;;;;;5002521;28;20034;-84
2023/07/07 06:40:46;;;;;;;0.30;0.20;;;;;;;;;;5000721;28;20046;-83
2023/07/07 06:43:17;;;;;;;0.20;0.17;;;;;;;;;;4982498;28;20042;-84
2023/07/07 06:45:44;;;;;;;0.30;0.28;;;;;;;;;;4983439;28;20089;-83
2023/07/07 06:48:10;;;;;;;0.20;0.10;;;;;;;;;;5001449;28;20541;-82
2023/07/07 06:50:37;;;;;;;0.20;0.10;;;;;;;;;;5000721;28;20058;-85
2023/07/07 06:53:05;;;;;;;0.20;0.10;;;;;;;;;;4984536;28;20072;-84
2023/07/07 06:55:31;;;;;;;0.20;0.10;;;;;;;;;;4985497;28;20065;-84
2023/07/07 06:58:11;;;;;;;0.20;0.10;;;;;;;;;;4979741;28;20053;-85
2023/07/07 07:00:43;;;;;;;0.20;0.10;;;;;;;;;;4980685;28;20054;-86
2023/07/07 07:03:15;;;;;;;0.30;0.22;;;;;;;;;;4984712;28;20042;-85
2023/07/07 07:05:50;;;;;;;0.20;0.10;;;;;;;;;;5002678;28;20040;-87
2023/07/07 07:08:19;;;;;;;0.30;0.20;;;;;;;;;;4981897;28;20499;-86
2023/07/07 07:10:52;;;;;;;0.20;0.10;;;;;;;;;;4985830;28;20060;-85
2023/07/07 07:13:42;;;;;;;0.20;0.10;;;;;;;;;;5002849;28;20560;-84
2023/07/07 07:16:31;;;;;;;0.50;0.20;;;;;;;;;;4986924;28;20045;-86
2023/07/07 07:19:00;;;;;;;0.20;0.10;;;;;;;;;;4993228;28;20041;-86
2023/07/07 07:21:26;;;;;;;0.20;0.20;;;;;;;;;;4986985;28;20073;-87
2023/07/07 07:24:09;;;;;;;0.20;0.10;;;;;;;;;;4986416;28;20069;-85
2023/07/07 07:26:35;;;;;;;0.20;0.10;;;;;;;;;;5000726;28;20070;-87
2023/07/07 07:29:14;;;;;;;0.22;0.20;;;;;;;;;;5003653;28;20076;-85
2023/07/07 07:31:40;;;;;;;0.20;0.10;;;;;;;;;;4999974;28;20081;-82
2023/07/07 07:34:24;;;;;;;0.20;0.10;;;;;;;;;;4997507;28;20053;-84
2023/07/07 07:36:51;;;;;;;0.65;0.35;;;;;;;;;;5031362;23;20323;-82
2023/07/07 07:39:17;;;;;;;0.20;0.10;;;;;;;;;;5001792;28;20096;-81
2023/07/07 07:41:44;;;;;;;0.25;0.15;;;;;;;;;;5021772;28;20148;-80
2023/07/07 07:44:11;;;;;;;0.20;0.10;;;;;;;;;;5025799;28;20529;-82
2023/07/07 07:46:37;;;;;;;0.30;0.13;;;;;;;;;;5005608;28;20129;-80
2023/07/07 07:49:03;;;;;;;0.20;0.10;;;;;;;;;;5012938;28;20060;-82
2023/07/07 07:51:29;;;;;;;0.47;0.20;;;;;;;;;;5010355;28;20735;-80
2023/07/07 07:53:55;;;;;;;0.20;0.10;;;;;;;;;;5021073;28;20047;-82
2023/07/07 07:56:21;;;;;;;0.20;0.10;;;;;;;;;;5007031;28;20037;-80
2023/07/07 07:58:47;;;;;;;0.20;0.10;;;;;;;;;;5009531;28;20048;-82
2023/07/07 08:01:13;;;;;;;0.20;0.10;;;;;;;;;;5024115;28;20038;-81
2023/07/07 08:03:39;;;;;;;0.20;0.10;;;;;;;;;;5022792;28;20129;-82
2023/07/07 08:06:05;;;;;;;0.20;0.15;;;;;;;;;;5011980;28;20304;-80
2023/07/07 08:08:31;;;;;;;0.20;0.10;;;;;;;;;;5013867;28;20179;-80
2023/07/07 08:10:57;;;;;;;0.20;0.10;;;;;;;;;;5020408;28;20191;-82
2023/07/07 08:13:23;;;;;;;0.20;0.15;;;;;;;;;;5010104;28;20490;-82
2023/07/07 08:15:49;;;;;;;0.20;0.10;;;;;;;;;;5024198;28;20033;-81
2023/07/07 08:18:15;;;;;;;0.20;0.20;;;;;;;;;;5012877;28;20183;-81
2023/07/07 08:20:41;;;;;;;0.20;0.10;;;;;;;;;;5004632;28;20142;-82
2023/07/07 08:23:07;;;;;;;0.20;0.10;;;;;;;;;;5013812;28;20064;-81
2023/07/07 08:25:35;;;;;;;0.68;0.30;;;;;;;;;;5010030;28;20059;-80
2023/07/07 08:28:01;;;;;;;0.20;0.10;;;;;;;;;;5021137;28;20113;-80
2023/07/07 08:30:27;;;;;;;0.20;0.10;;;;;;;;;;5019922;28;20045;-81
2023/07/07 08:32:54;;;;;;;0.38;0.20;;;;;;;;;;5015933;28;20029;-81
2023/07/07 08:35:20;;;;;;;0.20;0.10;;;;;;;;;;5023966;28;20045;-82
2023/07/07 08:37:46;;;;;;;0.25;0.15;;;;;;;;;;5023238;28;20268;-81
2023/07/07 08:40:15;;;;;;;0.20;0.20;;;;;;;;;;5021154;28;20490;-81
2023/07/07 08:42:42;;;;;;;0.20;0.10;;;;;;;;;;5016267;28;20033;-82
2023/07/07 08:45:20;;;;;;;0.20;0.10;;;;;;;;;;5022805;28;20040;-81
2023/07/07 08:48:12;;;;;;;0.20;0.10;;;;;;;;;;5021473;28;20052;-82
2023/07/07 08:50:41;;;;;;;0.57;0.40;;;;;;;;;;5002305;28;20053;-81
2023/07/07 08:53:10;;;;;;;0.47;0.30;;;;;;;;;;5026939;28;20057;-80
2023/07/07 08:55:55;;;;;;;0.20;0.10;;;;;;;;;;5022306;28;20501;-82
2023/07/07 08:58:34;;;;;;;0.20;0.10;;;;;;;;;;5038039;28;20116;-83
2023/07/07 09:01:19;;;;;;;0.28;0.15;;;;;;;;;;5007320;28;20970;-81
2023/07/07 09:03:52;;;;;;;0.20;0.10;;;;;;;;;;5008146;28;20124;-80
2023/07/07 09:06:28;;;;;;;0.20;0.10;;;;;;;;;;5023199;28;20037;-80
2023/07/07 09:08:54;;;;;;;0.40;0.20;;;;;;;;;;5017116;28;20134;-78
2023/07/07 09:11:39;;;;;;;0.30;0.30;;;;;;;;;;5005997;28;20069;-79
2023/07/07 09:14:07;;;;;;;0.20;0.10;;;;;;;;;;5024604;28;20045;-79
2023/07/07 09:16:34;;;;;;;0.20;0.10;;;;;;;;;;5020546;28;20040;-81
2023/07/07 09:19:11;;;;;;;0.20;0.10;;;;;;;;;;5008636;28;20038;-82
2023/07/07 09:21:42;;;;;;;0.20;0.20;;;;;;;;;;5043633;28;20075;-81
2023/07/07 09:24:18;;;;;;;0.20;0.10;;;;;;;;;;5008437;28;20788;-82
2023/07/07 09:26:46;;;;;;;0.20;0.10;;;;;;;;;;5020010;28;20124;-81
2023/07/07 09:29:25;;;;;;;0.30;0.20;;;;;;;;;;5009649;28;20068;-81
2023/07/07 09:31:51;;;;;;;0.25;0.22;;;;;;;;;;5025615;28;20044;-82
2023/07/07 09:34:17;;;;;;;0.20;0.10;;;;;;;;;;5020065;28;20040;-81
2023/07/07 09:36:55;;;;;;;0.22;0.10;;;;;;;;;;5023238;28;20041;-81
2023/07/07 09:39:40;;;;;;;0.20;0.00;;;;;;;;;;5027173;28;20049;-82
2023/07/07 09:42:25;;;;;;;0.20;0.00;;;;;;;;;;5017268;28;20045;-80
2023/07/07 09:45:01;;;;;;;0.20;0.10;;;;;;;;;;5008385;28;20038;-81
2023/07/07 09:47:45;;;;;;;0.32;0.30;;;;;;;;;;5026696;28;20041;-80
2023/07/07 09:50:22;;;;;;;0.20;0.10;;;;;;;;;;5002306;28;20502;-81
2023/07/07 09:52:55;;;;;;;0.20;0.10;;;;;;;;;;5026397;28;20501;-81
2023/07/07 09:55:22;;;;;;;0.20;0.10;;;;;;;;;;5039407;28;20038;-81
2023/07/07 09:58:09;;;;;;;0.20;0.20;;;;;;;;;;5008429;28;20375;-81
2023/07/07 10:00:35;;;;;;;0.20;0.20;;;;;;;;;;4999791;28;20132;-83
2023/07/07 10:03:05;;;;;;;0.20;0.10;;;;;;;;;;5021303;28;20215;-82
2023/07/07 10:05:34;;;;;;;0.20;0.10;;;;;;;;;;5038341;28;20047;-82
2023/07/07 10:08:01;;;;;;;0.20;0.10;;;;;;;;;;5013248;28;20071;-83
2023/07/07 10:10:27;;;;;;;0.20;0.00;;;;;;;;;;5020859;28;20352;-81
2023/07/07 10:12:53;;;;;;;0.20;0.10;;;;;;;;;;5005331;28;20072;-83
2023/07/07 10:15:34;;;;;;;0.20;0.10;;;;;;;;;;5025282;28;20516;-83
2023/07/07 10:18:04;;;;;;;0.20;0.10;;;;;;;;;;5023354;28;20038;-81
2023/07/07 10:20:30;;;;;;;0.20;0.10;;;;;;;;;;5005859;28;20048;-82
2023/07/07 10:22:56;;;;;;;0.20;0.10;;;;;;;;;;5026457;28;20160;-81
2023/07/07 10:25:25;;;;;;;0.20;0.10;;;;;;;;;;5026354;28;20045;-81
2023/07/07 10:27:53;;;;;;;0.20;0.10;;;;;;;;;;4997745;28;20068;-79
2023/07/07 10:30:20;;;;;;;0.20;0.10;;;;;;;;;;5018400;28;20129;-80
2023/07/07 10:32:46;;;;;;;0.20;0.20;;;;;;;;;;5021933;28;20516;-81
2023/07/07 10:35:18;;;;;;;0.20;0.10;;;;;;;;;;5025526;28;20041;-81
2023/07/07 10:37:44;;;;;;;0.30;0.20;;;;;;;;;;5013578;28;20048;-83
2023/07/07 10:40:13;;;;;;;0.20;0.17;;;;;;;;;;5020726;28;20136;-83
2023/07/07 10:42:39;;;;;;;0.43;0.20;;;;;;;;;;5023774;28;20034;-82
2023/07/07 10:45:05;;;;;;;0.20;0.10;;;;;;;;;;5006468;28;20068;-82
2023/07/07 10:47:33;;;;;;;0.20;0.10;;;;;;;;;;5023402;28;20072;-82
2023/07/07 10:50:00;;;;;;;0.20;0.10;;;;;;;;;;5008987;28;20045;-83
2023/07/07 10:52:26;;;;;;;0.38;0.20;;;;;;;;;;5002312;28;20030;-82
2023/07/07 10:55:24;;;;;;;0.63;0.30;;;;;;;;;;5025075;28;20059;-84
2023/07/07 10:58:00;;;;;;;0.20;0.10;;;;;;;;;;4980027;28;20095;-82
2023/07/07 11:00:32;;;;;;;0.20;0.10;;;;;;;;;;5038412;28;20056;-79
2023/07/07 11:03:07;;;;;;;0.20;0.10;;;;;;;;;;5030845;28;20042;-84
2023/07/07 11:05:36;;;;;;;0.20;0.10;;;;;;;;;;5023499;28;20128;-81
2023/07/07 11:08:09;;;;;;;0.45;0.22;;;;;;;;;;5006150;28;20072;-82
2023/07/07 11:10:54;;;;;;;0.20;0.10;;;;;;;;;;5038015;28;20038;-83
2023/07/07 11:13:23;;;;;;;0.20;0.10;;;;;;;;;;5013151;28;20037;-83
2023/07/07 11:15:59;;;;;;;0.20;0.10;;;;;;;;;;5026199;28;20375;-80
2023/07/07 11:18:44;;;;;;;0.20;0.10;;;;;;;;;;5026977;28;21252;-82
2023/07/07 11:21:18;;;;;;;0.20;0.00;;;;;;;;;;5027116;28;20722;-84
2023/07/07 11:24:03;;;;;;;0.22;0.10;;;;;;;;;;5016280;28;20041;-82
2023/07/07 11:26:32;;;;;;;0.50;0.20;;;;;;;;;;5014007;28;20234;-81
2023/07/07 11:29:07;;;;;;;0.20;0.10;;;;;;;;;;5026782;28;20106;-80
2023/07/07 11:31:45;;;;;;;0.20;0.10;;;;;;;;;;5027723;28;20046;-82
2023/07/07 11:34:20;;;;;;;0.30;0.10;;;;;;;;;;5022734;28;20025;-83
2023/07/07 11:36:57;;;;;;;0.20;0.10;;;;;;;;;;5023599;28;20041;-81
2023/07/07 11:39:23;;;;;;;0.20;0.05;;;;;;;;;;5014852;28;20083;-82
2023/07/07 11:42:05;;;;;;;0.30;0.20;;;;;;;;;;5026247;28;20124;-80
2023/07/07 11:44:31;;;;;;;0.32;0.10;;;;;;;;;;5001911;28;20049;-83
2023/07/07 11:46:57;;;;;;;0.20;0.10;;;;;;;;;;5037031;28;20060;-83
2023/07/07 11:49:44;;;;;;;0.63;0.10;;;;;;;;;;5006739;28;20126;-83
2023/07/07 11:52:23;;;;;;;0.20;0.10;;;;;;;;;;5024323;28;20664;-83
2023/07/07 11:54:49;;;;;;;0.20;0.10;;;;;;;;;;5024050;28;20168;-82
2023/07/07 11:57:34;;;;;;;0.55;0.38;;;;;;;;;;5029785;28;20065;-80
2023/07/07 12:00:03;;;;;;;0.73;0.30;;;;;;;;;;5011838;28;20050;-82
2023/07/07 12:02:31;;;;;;;0.20;0.10;;;;;;;;;;5029319;28;20041;-82
2023/07/07 12:05:00;;;;;;;0.20;0.10;;;;;;;;;;5019586;28;20041;-83
2023/07/07 12:07:39;;;;;;;0.20;0.10;;;;;;;;;;5029161;28;20045;-81
2023/07/07 12:10:07;;;;;;;0.20;0.10;;;;;;;;;;5025588;28;20046;-83
2023/07/07 12:12:55;;;;;;;0.20;0.10;;;;;;;;;;5027126;28;20038;-82
2023/07/07 12:15:23;;;;;;;0.20;0.10;;;;;;;;;;5006776;28;20069;-83
2023/07/07 12:18:00;;;;;;;0.40;0.20;;;;;;;;;;5009401;28;20053;-82
2023/07/07 12:20:29;;;;;;;0.20;0.10;;;;;;;;;;5007446;28;20042;-83
2023/07/07 12:22:58;;;;;;;0.20;0.10;;;;;;;;;;5025630;28;20107;-81
2023/07/07 12:25:26;;;;;;;0.20;0.10;;;;;;;;;;5026696;28;20105;-81
2023/07/07 12:27:52;;;;;;;0.20;0.10;;;;;;;;;;5027031;28;20078;-81
2023/07/07 12:30:39;;;;;;;0.20;0.10;;;;;;;;;;5024861;28;20033;-82
2023/07/07 12:33:05;;;;;;;0.20;0.10;;;;;;;;;;5026464;28;20037;-82
2023/07/07 12:35:47;;;;;;;0.20;0.10;;;;;;;;;;5025156;28;20042;-80
2023/07/07 12:38:24;;;;;;;0.20;0.10;;;;;;;;;;5025192;28;20067;-81
2023/07/07 12:40:50;;;;;;;0.20;0.10;;;;;;;;;;5026334;28;20049;-80
2023/07/07 12:43:20;;;;;;;0.20;0.10;;;;;;;;;;5028143;28;20044;-80
2023/07/07 12:45:46;;;;;;;0.20;0.10;;;;;;;;;;5027291;28;20060;-81
2023/07/07 12:48:19;;;;;;;0.20;0.10;;;;;;;;;;5012049;28;20030;-82
2023/07/07 12:50:45;;;;;;;0.20;0.10;;;;;;;;;;5026852;28;20053;-82
2023/07/07 12:53:31;;;;;;;0.20;0.15;;;;;;;;;;5008340;28;20036;-80
2023/07/07 12:55:59;;;;;;;0.20;0.10;;;;;;;;;;5009471;28;20056;-80
2023/07/07 12:58:34;;;;;;;0.20;0.10;;;;;;;;;;5008567;28;20041;-81
2023/07/07 13:01:11;;;;;;;0.20;0.10;;;;;;;;;;5038224;28;20042;-80
2023/07/07 13:03:46;;;;;;;0.32;0.30;;;;;;;;;;5024864;28;20247;-79
2023/07/07 13:06:33;;;;;;;0.30;0.22;;;;;;;;;;5029228;28;20095;-82
2023/07/07 13:09:18;;;;;;;0.20;0.20;;;;;;;;;;5021739;28;20047;-83
2023/07/07 13:11:50;;;;;;;0.20;0.10;;;;;;;;;;5003134;28;20049;-82
2023/07/07 13:14:16;;;;;;;;;;;;;;;;;;5041124;28;20038;-82
2023/07/07 13:16:42;;;;;;;0.20;0.10;;;;;;;;;;5026016;28;20011;-81
2023/07/07 13:19:08;;;;;;;0.20;0.10;;;;;;;;;;5009508;28;20038;-81
2023/07/07 13:21:37;;;;;;;0.20;0.10;;;;;;;;;;5006655;28;20071;-83
2023/07/07 13:24:04;;;;;;;0.20;0.10;;;;;;;;;;5023965;28;20047;-81
2023/07/07 13:26:31;;;;;;;0.35;0.25;;;;;;;;;;5020901;28;20127;-82
2023/07/07 13:29:01;;;;;;;0.20;0.20;;;;;;;;;;5012050;28;20043;-80
2023/07/07 13:31:27;;;;;;;0.40;0.20;;;;;;;;;;5018847;28;20049;-79
2023/07/07 13:33:53;;;;;;;0.32;0.15;;;;;;;;;;5013869;28;20510;-81
2023/07/07 13:36:20;;;;;;;0.20;0.10;;;;;;;;;;5027516;23;20136;-81
2023/07/07 13:38:49;;;;;;;0.20;0.10;;;;;;;;;;5012926;28;20049;-81
2023/07/07 13:41:16;;;;;;;0.20;0.10;;;;;;;;;;4987170;28;20687;-84
2023/07/07 13:43:43;;;;;;;0.20;0.05;;;;;;;;;;5001750;28;20153;-82
2023/07/07 13:46:09;;;;;;;0.20;0.10;;;;;;;;;;5011702;28;20041;-80
2023/07/07 13:48:35;;;;;;;0.20;0.10;;;;;;;;;;4998894;28;20041;-82
2023/07/07 13:51:05;;;;;;;0.20;0.10;;;;;;;;;;5008340;28;20060;-81
2023/07/07 13:53:31;;;;;;;0.20;0.10;;;;;;;;;;5014230;28;20038;-82
2023/07/07 13:55:58;;;;;;;0.20;0.10;;;;;;;;;;4995195;28;20494;-82
2023/07/07 13:58:25;;;;;;;0.20;0.20;;;;;;;;;;4993719;28;20046;-82
2023/07/07 14:00:58;;;;;;;0.20;0.10;;;;;;;;;;4992569;28;20478;-86
2023/07/07 14:03:25;;;;;;;0.20;0.10;;;;;;;;;;4988695;28;20738;-79
2023/07/07 14:05:55;;;;;;;0.20;0.10;;;;;;;;;;4997960;28;20525;-83
2023/07/07 14:08:27;;;;;;;0.80;0.30;;;;;;;;;;5005334;28;20045;-84
2023/07/07 14:10:54;;;;;;;0.30;0.30;;;;;;;;;;5007828;28;20094;-83
2023/07/07 14:13:30;;;;;;;0.20;0.10;;;;;;;;;;4988563;28;20038;-79
2023/07/07 14:16:02;;;;;;;0.20;0.10;;;;;;;;;;4989710;28;20048;-82
2023/07/07 14:18:32;;;;;;;0.20;0.10;;;;;;;;;;5005389;28;20049;-80
2023/07/07 14:20:59;;;;;;;0.20;0.10;;;;;;;;;;5008579;28;20570;-80
2023/07/07 14:23:25;;;;;;;0.20;0.10;;;;;;;;;;4994931;28;20056;-82
2023/07/07 14:25:55;;;;;;;0.20;0.10;;;;;;;;;;5014392;28;20033;-81
2023/07/07 14:28:23;;;;;;;0.20;0.10;;;;;;;;;;5016281;28;20034;-81
2023/07/07 14:30:50;;;;;;;0.20;0.10;;;;;;;;;;5000682;28;20061;-81
2023/07/07 14:33:23;;;;;;;0.30;0.30;;;;;;;;;;4998480;28;20525;-81
2023/07/07 14:35:53;;;;;;;0.20;0.20;;;;;;;;;;4990877;28;20188;-82
2023/07/07 14:38:30;;;;;;;0.20;0.10;;;;;;;;;;4986619;28;20044;-82
2023/07/07 14:40:56;;;;;;;0.20;0.10;;;;;;;;;;4994816;28;20505;-81
2023/07/07 14:43:24;;;;;;;0.20;0.10;;;;;;;;;;4981528;28;20048;-81
2023/07/07 14:45:52;;;;;;;0.30;0.20;;;;;;;;;;5020528;28;20038;-80
2023/07/07 14:48:20;;;;;;;0.30;0.30;;;;;;;;;;5001498;28;20267;-79
2023/07/07 14:50:46;;;;;;;0.20;0.10;;;;;;;;;;5005666;28;20056;-81
2023/07/07 14:53:15;;;;;;;0.20;0.10;;;;;;;;;;5004948;28;20383;-81
2023/07/07 14:55:47;;;;;;;0.20;0.03;;;;;;;;;;4986301;28;20048;-80
2023/07/07 14:58:16;;;;;;;0.32;0.20;;;;;;;;;;5007069;28;20545;-81
2023/07/07 15:00:42;;;;;;;0.20;0.10;;;;;;;;;;4992931;28;20113;-80
2023/07/07 15:03:26;;;;;;;0.20;0.10;;;;;;;;;;4995759;28;20466;-80
2023/07/07 15:06:00;;;;;;;0.20;0.10;;;;;;;;;;4993329;28;20041;-81
2023/07/07 15:08:29;;;;;;;0.20;0.10;;;;;;;;;;5003475;28;20247;-81
2023/07/07 15:11:01;;;;;;;0.20;0.10;;;;;;;;;;4995404;28;20996;-78
2023/07/07 15:13:28;;;;;;;0.32;0.17;;;;;;;;;;4998810;28;20409;-82
2023/07/07 15:15:54;;;;;;;0.20;0.10;;;;;;;;;;5002747;28;20501;-80
2023/07/07 15:18:20;;;;;;;0.30;0.25;;;;;;;;;;4989064;28;20128;-85
2023/07/07 15:20:46;;;;;;;0.20;0.13;;;;;;;;;;5009326;28;20096;-80
2023/07/07 15:23:16;;;;;;;0.20;0.10;;;;;;;;;;4996815;28;20049;-81
2023/07/07 15:25:42;;;;;;;0.22;0.13;;;;;;;;;;5009938;28;20127;-79
2023/07/07 15:28:12;;;;;;;0.20;0.10;;;;;;;;;;5002481;28;20053;-80
2023/07/07 15:30:38;;;;;;;0.20;0.10;;;;;;;;;;4990401;28;20041;-79
2023/07/07 15:33:05;;;;;;;0.20;0.10;;;;;;;;;;4996002;28;20053;-82
2023/07/07 15:35:31;;;;;;;0.45;0.15;;;;;;;;;;5008127;28;20416;-81
2023/07/07 15:38:02;;;;;;;0.30;0.30;;;;;;;;;;5013363;28;20037;-80
2023/07/07 15:40:28;;;;;;;0.28;0.10;;;;;;;;;;5003977;28;20052;-83
2023/07/07 15:42:54;;;;;;;0.20;0.20;;;;;;;;;;5013091;28;20866;-83
2023/07/07 15:45:20;;;;;;;0.20;0.10;;;;;;;;;;5011065;28;20067;-81
2023/07/07 15:47:47;;;;;;;0.20;0.10;;;;;;;;;;5014913;28;20116;-82
2023/07/07 15:50:14;;;;;;;0.20;0.10;;;;;;;;;;5015039;28;20053;-82
2023/07/07 15:52:40;;;;;;;0.20;0.10;;;;;;;;;;4992335;28;20045;-80
2023/07/07 15:55:07;;;;;;;0.20;0.10;;;;;;;;;;5016085;28;20037;-80
2023/07/07 15:57:33;;;;;;;0.20;0.10;;;;;;;;;;4992950;28;20045;-79
2023/07/07 15:59:59;;;;;;;0.20;0.10;;;;;;;;;;5016432;28;20358;-80
2023/07/07 16:02:27;;;;;;;0.30;0.20;;;;;;;;;;5027952;28;20378;-82
2023/07/07 16:04:53;;;;;;;0.30;0.28;;;;;;;;;;5021714;28;20093;-81
2023/07/07 16:07:19;;;;;;;0.20;0.10;;;;;;;;;;5006799;28;20191;-82
2023/07/07 16:09:45;;;;;;;0.30;0.20;;;;;;;;;;5019023;28;20197;-82
2023/07/07 16:12:12;;;;;;;0.60;0.22;;;;;;;;;;5004524;28;20202;-82
2023/07/07 16:14:38;;;;;;;0.20;0.10;;;;;;;;;;5019244;28;20133;-81
2023/07/07 16:17:11;;;;;;;0.20;0.15;;;;;;;;;;5004928;28;20106;-80
2023/07/07 16:19:37;;;;;;;0.20;0.10;;;;;;;;;;5003091;28;20045;-81
2023/07/07 16:22:09;;;;;;;0.20;0.10;;;;;;;;;;5026251;28;20045;-81
2023/07/07 16:24:35;;;;;;;0.20;0.10;;;;;;;;;;5010273;28;20036;-79
2023/07/07 16:27:01;;;;;;;0.20;0.10;;;;;;;;;;4999914;28;20041;-80
2023/07/07 16:29:27;;;;;;;0.20;0.10;;;;;;;;;;5008691;28;20524;-81
2023/07/07 16:31:53;;;;;;;0.75;0.20;;;;;;;;;;5009824;28;20042;-80
2023/07/07 16:34:19;;;;;;;0.20;0.10;;;;;;;;;;5024554;28;20394;-82
2023/07/07 16:36:46;;;;;;;0.20;0.10;;;;;;;;;;5006138;28;20128;-84
2023/07/07 16:39:13;;;;;;;0.20;0.10;;;;;;;;;;5017332;28;20069;-81
2023/07/07 16:41:39;;;;;;;0.20;0.10;;;;;;;;;;5001750;28;20525;-81
2023/07/07 16:44:05;;;;;;;0.43;0.25;;;;;;;;;;5007359;28;20405;-81
2023/07/07 16:46:31;;;;;;;0.20;0.10;;;;;;;;;;5010613;28;20037;-80